Time;durP1;ratioP1;P1;durP2;ratioP2;P2;SDS_P1;SDS_P2;PMS_P1;PMS_P2;Temp;Humidity;BMP_temperature;BMP_pressure;BME280_temperature;BME280_humidity;BME280_pressure;Samples;Min_cycle;Max_cycle;Signal;HPM_P1;HPM_P2
2023/04/05 00:01:24;;;;;;;11.80;4.55;;;3.70;1.00;;;;;;5062813;28;20033;-71
2023/04/05 00:03:54;;;;;;;11.32;4.32;;;3.50;1.00;;;;;;5067197;28;20344;-70
2023/04/05 00:06:27;;;;;;;12.65;4.47;;;3.50;1.00;;;;;;5056861;28;20025;-71
2023/04/05 00:09:03;;;;;;;12.43;4.40;;;3.50;1.00;;;;;;5052023;28;20088;-70
2023/04/05 00:11:31;;;;;;;11.75;4.57;;;3.50;1.00;;;;;;5052169;28;20102;-69
2023/04/05 00:13:58;;;;;;;13.88;5.00;;;3.50;1.00;;;;;;5051824;28;20021;-69
2023/04/05 00:16:25;;;;;;;11.52;5.00;;;3.40;1.00;;;;;;5051590;28;20033;-70
2023/04/05 00:18:51;;;;;;;18.05;5.32;;;3.40;1.00;;;;;;5055915;28;20025;-70
2023/04/05 00:21:20;;;;;;;13.27;4.22;;;3.40;1.00;;;;;;5056423;28;20110;-70
2023/04/05 00:23:50;;;;;;;15.52;4.40;;;3.30;1.00;;;;;;5055239;28;20071;-70
2023/04/05 00:26:16;;;;;;;11.75;4.47;;;3.30;1.00;;;;;;5055463;28;20032;-72
2023/04/05 00:28:42;;;;;;;11.77;4.63;;;3.30;1.00;;;;;;5054801;28;20029;-70
2023/04/05 00:31:07;;;;;;;19.45;5.03;;;3.20;1.00;;;;;;5054360;28;20025;-70
2023/04/05 00:33:33;;;;;;;11.27;4.38;;;3.20;1.00;;;;;;5054241;28;20036;-69
2023/04/05 00:36:09;;;;;;;12.23;4.63;;;3.20;1.00;;;;;;5054413;28;20044;-71
2023/04/05 00:38:35;;;;;;;12.63;4.93;;;3.20;1.00;;;;;;5054310;28;20029;-70
2023/04/05 00:41:00;;;;;;;12.80;5.22;;;3.10;1.00;;;;;;5054320;28;20156;-70
2023/04/05 00:43:26;;;;;;;15.18;5.20;;;3.20;1.00;;;;;;5053969;28;20075;-70
2023/04/05 00:45:52;;;;;;;14.60;5.63;;;3.20;1.00;;;;;;5054114;28;20025;-69
2023/04/05 00:48:18;;;;;;;14.68;5.80;;;3.10;1.00;;;;;;5054143;28;20017;-69
2023/04/05 00:50:45;;;;;;;14.07;5.95;;;3.10;1.00;;;;;;5054388;28;20024;-70
2023/04/05 00:53:11;;;;;;;17.08;5.72;;;3.10;1.00;;;;;;5053790;28;20028;-71
2023/04/05 00:55:36;;;;;;;13.80;6.10;;;3.10;1.00;;;;;;5054088;28;20025;-70
2023/04/05 00:58:02;;;;;;;14.25;5.80;;;3.10;1.00;;;;;;5053892;28;20037;-70
2023/04/05 01:00:28;;;;;;;15.13;6.53;;;3.10;1.00;;;;;;5053964;28;20433;-70
2023/04/05 01:03:02;;;;;;;15.18;5.78;;;3.10;1.00;;;;;;5053597;28;20033;-69
2023/04/05 01:05:47;;;;;;;11.32;6.57;;;3.10;1.00;;;;;;5053864;28;20518;-69
2023/04/05 01:08:18;;;;;;;14.73;5.85;;;3.00;1.00;;;;;;5054349;28;20405;-69
2023/04/05 01:10:50;;;;;;;14.32;6.28;;;3.00;1.00;;;;;;5054744;28;20151;-70
2023/04/05 01:13:16;;;;;;;15.50;6.43;;;3.00;1.00;;;;;;5054296;28;20025;-71
2023/04/05 01:15:42;;;;;;;14.13;5.82;;;3.00;1.00;;;;;;5054043;28;20099;-70
2023/04/05 01:18:10;;;;;;;21.95;6.53;;;3.00;1.00;;;;;;5053820;28;20052;-73
2023/04/05 01:20:43;;;;;;;15.23;7.57;;;2.90;1.00;;;;;;5059863;28;20111;-70
2023/04/05 01:23:32;;;;;;;15.07;7.63;;;2.80;1.00;;;;;;5054387;28;20690;-71
2023/04/05 01:26:30;;;;;;;17.02;7.82;;;2.80;1.00;;;;;;5053773;28;20504;-71
2023/04/05 01:29:03;;;;;;;19.33;7.55;;;2.80;1.00;;;;;;5052793;28;20117;-70
2023/04/05 01:31:56;;;;;;;24.60;7.67;;;2.80;1.00;;;;;;5053902;28;20402;-70
2023/04/05 01:34:36;;;;;;;18.70;7.20;;;2.80;1.00;;;;;;5053925;28;20052;-70
2023/04/05 01:37:06;;;;;;;17.50;6.93;;;2.80;1.00;;;;;;5073475;28;20024;-70
2023/04/05 01:39:35;;;;;;;14.57;7.15;;;2.80;1.00;;;;;;5073997;28;20103;-70
2023/04/05 01:42:01;;;;;;;20.30;8.18;;;2.80;1.00;;;;;;5074224;28;20635;-71
2023/04/05 01:44:28;;;;;;;19.05;7.35;;;2.80;1.00;;;;;;5074942;28;20021;-72
2023/04/05 01:46:54;;;;;;;16.13;7.05;;;2.80;1.00;;;;;;5077013;28;20039;-72
2023/04/05 01:49:20;;;;;;;14.98;6.70;;;2.70;1.00;;;;;;5076577;28;20414;-70
2023/04/05 01:51:45;;;;;;;15.20;6.50;;;2.70;1.00;;;;;;5077253;28;20108;-70
2023/04/05 01:54:11;;;;;;;19.58;7.28;;;2.60;1.00;;;;;;5079120;28;20067;-69
2023/04/05 01:56:37;;;;;;;16.27;7.13;;;2.60;1.00;;;;;;5076849;28;20070;-70
2023/04/05 01:59:02;;;;;;;15.27;6.45;;;2.60;1.00;;;;;;5072824;28;20042;-70
2023/04/05 02:01:28;;;;;;;14.60;6.03;;;2.60;1.00;;;;;;5073315;28;20020;-71
2023/04/05 02:03:53;;;;;;;13.63;6.07;;;2.60;1.00;;;;;;5072518;28;20036;-70
2023/04/05 02:06:19;;;;;;;12.88;5.90;;;2.60;1.00;;;;;;5072608;28;20029;-70
2023/04/05 02:08:45;;;;;;;13.50;5.60;;;2.60;1.00;;;;;;5072919;28;20028;-70
2023/04/05 02:11:10;;;;;;;13.57;5.18;;;2.60;1.00;;;;;;5073760;28;20032;-70
2023/04/05 02:13:36;;;;;;;17.23;5.93;;;2.50;1.00;;;;;;5073004;28;20031;-70
2023/04/05 02:16:01;;;;;;;15.40;5.80;;;2.50;1.00;;;;;;5073631;28;20031;-69
2023/04/05 02:18:30;;;;;;;13.95;5.00;;;2.50;1.00;;;;;;5073657;28;20056;-70
2023/04/05 02:21:07;;;;;;;15.00;5.78;;;2.50;1.00;;;;;;5073400;28;20075;-69
2023/04/05 02:23:33;;;;;;;15.02;5.88;;;2.40;1.00;;;;;;5072750;28;20031;-70
2023/04/05 02:26:00;;;;;;;15.20;6.10;;;2.30;1.00;;;;;;5073432;28;20032;-70
2023/04/05 02:28:26;;;;;;;17.42;5.57;;;2.30;1.00;;;;;;5072801;28;20022;-71
2023/04/05 02:30:51;;;;;;;17.63;6.85;;;2.30;1.00;;;;;;5073189;28;20378;-70
2023/04/05 02:33:17;;;;;;;17.27;7.88;;;2.30;1.00;;;;;;5072511;28;20024;-70
2023/04/05 02:35:43;;;;;;;22.83;6.97;;;2.40;1.00;;;;;;5073245;28;20486;-70
2023/04/05 02:38:09;;;;;;;17.25;6.22;;;2.30;1.00;;;;;;5072727;28;20039;-70
2023/04/05 02:40:34;;;;;;;14.90;7.15;;;2.30;1.00;;;;;;5073072;28;20123;-70
2023/04/05 02:43:00;;;;;;;17.40;6.55;;;2.30;1.00;;;;;;5072545;28;20021;-70
2023/04/05 02:45:26;;;;;;;19.48;8.00;;;2.30;1.00;;;;;;5072605;28;20027;-70
2023/04/05 02:47:53;;;;;;;23.73;6.80;;;2.30;1.00;;;;;;5072710;28;20112;-70
2023/04/05 02:50:19;;;;;;;25.48;7.88;;;2.20;1.00;;;;;;5054730;28;20442;-70
2023/04/05 02:52:46;;;;;;;24.67;9.05;;;2.20;1.00;;;;;;5052578;28;20398;-70
2023/04/05 02:55:12;;;;;;;20.77;8.57;;;2.20;1.00;;;;;;5052722;28;20024;-71
2023/04/05 02:57:38;;;;;;;23.10;8.57;;;2.20;1.00;;;;;;5052613;28;20037;-70
2023/04/05 03:00:04;;;;;;;16.85;8.25;;;2.20;1.00;;;;;;5068507;28;20398;-70
2023/04/05 03:02:30;;;;;;;31.10;10.98;;;2.20;1.00;;;;;;5071348;28;20141;-70
2023/04/05 03:04:56;;;;;;;27.30;10.70;;;2.20;1.00;;;;;;5072129;28;20501;-69
2023/04/05 03:07:24;;;;;;;24.50;9.45;;;2.10;1.00;;;;;;5072210;28;20013;-70
2023/04/05 03:09:50;;;;;;;24.17;11.60;;;2.10;1.00;;;;;;5072001;28;20457;-69
2023/04/05 03:12:16;;;;;;;22.42;7.97;;;2.10;1.00;;;;;;5071986;28;20026;-69
2023/04/05 03:14:41;;;;;;;16.20;6.97;;;2.00;1.00;;;;;;5072353;28;20108;-68
2023/04/05 03:17:07;;;;;;;17.65;6.72;;;2.00;1.00;;;;;;5072505;28;20078;-69
2023/04/05 03:19:34;;;;;;;17.92;6.80;;;2.00;1.00;;;;;;5072471;28;20119;-70
2023/04/05 03:22:00;;;;;;;15.60;6.68;;;2.00;1.00;;;;;;5071944;28;20032;-70
2023/04/05 03:24:25;;;;;;;16.23;6.43;;;2.00;1.00;;;;;;5073112;28;20021;-71
2023/04/05 03:26:51;;;;;;;21.55;7.03;;;2.00;1.00;;;;;;5072747;28;20039;-75
2023/04/05 03:29:17;;;;;;;14.65;6.32;;;2.00;1.00;;;;;;5062652;28;20032;-71
2023/04/05 03:31:44;;;;;;;23.35;9.15;;;2.00;1.00;;;;;;5062286;28;20111;-70
2023/04/05 03:34:10;;;;;;;21.70;7.60;;;2.00;1.00;;;;;;5065273;28;20032;-71
2023/04/05 03:36:41;;;;;;;18.25;7.13;;;2.00;1.00;;;;;;5062187;28;20040;-70
2023/04/05 03:39:11;;;;;;;13.82;6.72;;;2.00;1.00;;;;;;5060097;28;20025;-71
2023/04/05 03:41:38;;;;;;;19.40;6.75;;;2.00;1.00;;;;;;5061801;28;20029;-70
2023/04/05 03:44:03;;;;;;;17.52;7.28;;;2.00;1.00;;;;;;5070057;28;20450;-69
2023/04/05 03:46:29;;;;;;;19.73;7.13;;;2.00;1.00;;;;;;5071850;28;20056;-70
2023/04/05 03:48:56;;;;;;;16.67;7.20;;;2.00;1.00;;;;;;5071689;28;20024;-69
2023/04/05 03:51:22;;;;;;;25.02;8.38;;;2.00;1.00;;;;;;5071874;28;20021;-68
2023/04/05 03:53:49;;;;;;;20.08;8.27;;;2.00;1.00;;;;;;5071287;28;20126;-69
2023/04/05 03:56:15;;;;;;;23.42;9.93;;;2.00;1.00;;;;;;5071408;28;20032;-70
2023/04/05 03:58:41;;;;;;;20.88;7.85;;;2.00;1.00;;;;;;5071895;28;20037;-71
2023/04/05 04:01:06;;;;;;;20.25;8.10;;;2.00;1.00;;;;;;5072077;28;20024;-71
2023/04/05 04:03:32;;;;;;;20.15;8.13;;;2.00;1.00;;;;;;5071752;28;20104;-70
2023/04/05 04:05:58;;;;;;;22.63;8.20;;;2.00;1.00;;;;;;5071629;28;20385;-70
2023/04/05 04:08:25;;;;;;;22.27;8.70;;;1.90;1.00;;;;;;5071659;28;20168;-69
2023/04/05 04:10:50;;;;;;;23.15;9.30;;;1.90;1.00;;;;;;5071564;28;20016;-71
2023/04/05 04:13:18;;;;;;;19.52;8.27;;;1.90;1.00;;;;;;5071346;28;20362;-70
2023/04/05 04:15:44;;;;;;;20.27;8.82;;;1.90;1.00;;;;;;5071661;28;20111;-70
2023/04/05 04:18:10;;;;;;;27.10;9.18;;;1.90;1.00;;;;;;5071487;28;20039;-69
2023/04/05 04:20:36;;;;;;;17.90;7.78;;;1.90;1.00;;;;;;5071611;28;20029;-69
2023/04/05 04:23:08;;;;;;;18.63;7.55;;;1.80;1.00;;;;;;5071191;28;20032;-70
2023/04/05 04:25:37;;;;;;;22.48;8.45;;;1.80;1.00;;;;;;5071474;28;20043;-70
2023/04/05 04:28:05;;;;;;;35.15;11.93;;;1.80;1.00;;;;;;5071332;28;20039;-69
2023/04/05 04:30:33;;;;;;;23.92;9.95;;;1.80;1.00;;;;;;5072021;28;20027;-70
2023/04/05 04:33:03;;;;;;;30.65;12.90;;;1.90;6.00;;;;;;5071285;28;20051;-69
2023/04/05 04:35:32;;;;;;;29.90;12.25;;;1.90;7.80;;;;;;5071375;28;20021;-70
2023/04/05 04:38:06;;;;;;;22.98;9.35;;;1.90;7.70;;;;;;5071979;28;20074;-71
2023/04/05 04:40:37;;;;;;;24.98;9.43;;;1.90;9.50;;;;;;5071687;28;20474;-70
2023/04/05 04:43:04;;;;;;;23.95;9.25;;;2.00;8.40;;;;;;5071372;28;20108;-69
2023/04/05 04:45:33;;;;;;;23.27;9.23;;;2.00;7.80;;;;;;5071905;28;20029;-71
2023/04/05 04:48:00;;;;;;;21.33;8.45;;;2.00;8.40;;;;;;5071199;28;20020;-70
2023/04/05 04:50:25;;;;;;;21.75;9.13;;;2.00;10.60;;;;;;5071276;28;20112;-71
2023/04/05 04:52:51;;;;;;;29.95;9.20;;;2.10;9.80;;;;;;5070767;28;20103;-70
2023/04/05 04:55:17;;;;;;;24.77;10.45;;;2.10;9.70;;;;;;5071265;28;20028;-70
2023/04/05 04:57:42;;;;;;;22.27;9.00;;;2.10;13.50;;;;;;5071955;28;20110;-69
2023/04/05 05:00:13;;;;;;;28.25;10.52;;;2.20;14.30;;;;;;5072803;28;20082;-72
2023/04/05 05:02:41;;;;;;;26.27;9.52;;;2.20;13.50;;;;;;5072682;28;20029;-70
2023/04/05 05:05:07;;;;;;;24.92;9.98;;;2.30;11.60;;;;;;5074336;28;20078;-73
2023/04/05 05:07:33;;;;;;;25.27;9.25;;;2.20;11.10;;;;;;5075327;28;20025;-71
2023/04/05 05:09:58;;;;;;;29.50;10.02;;;2.30;7.20;;;;;;5075051;28;20466;-72
2023/04/05 05:12:25;;;;;;;29.52;11.05;;;2.30;10.60;;;;;;5074551;28;20036;-71
2023/04/05 05:14:51;;;;;;;26.13;10.43;;;2.30;9.30;;;;;;5074903;28;20020;-70
2023/04/05 05:17:17;;;;;;;30.52;12.05;;;2.40;12.50;;;;;;5076151;28;20050;-69
2023/04/05 05:19:42;;;;;;;31.40;12.38;;;2.50;11.60;;;;;;5075308;28;20029;-71
2023/04/05 05:22:08;;;;;;;30.83;11.85;;;2.60;7.60;;;;;;5068749;28;20035;-71
2023/04/05 05:24:33;;;;;;;36.00;13.85;;;2.60;5.70;;;;;;5068584;28;20030;-72
2023/04/05 05:26:59;;;;;;;32.38;13.57;;;2.60;1.70;;;;;;5064709;28;20104;-73
2023/04/05 05:29:25;;;;;;;36.60;14.05;;;2.70;1.00;;;;;;5064188;28;20029;-72
2023/04/05 05:31:50;;;;;;;29.83;11.40;;;2.80;1.00;;;;;;5046549;28;20021;-72
2023/04/05 05:34:18;;;;;;;29.40;10.82;;;2.90;1.00;;;;;;5062446;28;20021;-71
2023/04/05 05:36:43;;;;;;;24.05;8.95;;;2.90;1.00;;;;;;5064742;28;20029;-71
2023/04/05 05:39:09;;;;;;;28.65;10.35;;;2.80;1.00;;;;;;5063868;28;20102;-72
2023/04/05 05:41:35;;;;;;;31.60;10.85;;;2.80;1.00;;;;;;5063835;28;20032;-72
2023/04/05 05:44:00;;;;;;;24.30;9.88;;;2.80;3.50;;;;;;5065206;28;20041;-70
2023/04/05 05:46:26;;;;;;;23.05;10.23;;;2.90;9.00;;;;;;5065569;28;20029;-71
2023/04/05 05:48:52;;;;;;;23.58;11.43;;;3.00;7.50;;;;;;5065907;28;20021;-73
2023/04/05 05:51:17;;;;;;;30.15;12.60;;;3.10;8.50;;;;;;5065931;28;20020;-71
2023/04/05 05:53:44;;;;;;;29.88;12.77;;;3.20;7.60;;;;;;5060399;28;20028;-70
2023/04/05 05:56:10;;;;;;;40.63;12.23;;;3.20;4.20;;;;;;5064657;28;20032;-71
2023/04/05 05:58:36;;;;;;;28.55;11.32;;;3.30;4.00;;;;;;5068670;28;20372;-71
2023/04/05 06:01:02;;;;;;;34.50;11.88;;;3.40;1.00;;;;;;5067284;28;20025;-69
2023/04/05 06:03:29;;;;;;;20.10;10.45;;;3.50;1.00;;;;;;5064569;28;20025;-70
2023/04/05 06:05:56;;;;;;;19.27;9.85;;;3.60;1.00;;;;;;5062137;28;20017;-70
2023/04/05 06:08:28;;;;;;;29.60;10.55;;;3.60;1.00;;;;;;5064466;28;20033;-73
2023/04/05 06:10:54;;;;;;;26.27;10.82;;;3.70;1.00;;;;;;5061552;28;20047;-76
2023/04/05 06:13:20;;;;;;;29.20;11.68;;;3.70;1.00;;;;;;5066104;28;20028;-72
2023/04/05 06:15:48;;;;;;;25.88;11.00;;;3.60;1.00;;;;;;5061928;28;20425;-70
2023/04/05 06:18:14;;;;;;;23.38;10.30;;;3.60;1.00;;;;;;5061341;28;20039;-71
2023/04/05 06:20:41;;;;;;;22.90;9.80;;;3.60;1.00;;;;;;5064430;28;20476;-72
2023/04/05 06:23:07;;;;;;;24.38;9.20;;;3.70;1.00;;;;;;5063936;28;20463;-70
2023/04/05 06:25:33;;;;;;;23.50;10.13;;;3.90;1.00;;;;;;5064147;28;20021;-72
2023/04/05 06:27:59;;;;;;;27.05;11.57;;;4.10;1.00;;;;;;5064061;28;20025;-71
2023/04/05 06:30:25;;;;;;;33.63;14.00;;;4.30;1.00;;;;;;5072827;28;20082;-70
2023/04/05 06:32:53;;;;;;;19.58;8.95;;;4.50;1.00;;;;;;5057654;28;20028;-72
2023/04/05 06:35:22;;;;;;;24.10;8.18;;;4.60;1.00;;;;;;5062170;28;20071;-71
2023/04/05 06:37:48;;;;;;;27.77;8.63;;;4.70;1.00;;;;;;5067389;28;20418;-72
2023/04/05 06:40:14;;;;;;;25.90;9.18;;;4.80;1.00;;;;;;5066498;28;20024;-72
2023/04/05 06:42:40;;;;;;;28.70;11.57;;;5.00;1.00;;;;;;5064871;28;20029;-72
2023/04/05 06:45:06;;;;;;;23.27;11.40;;;5.00;1.00;;;;;;5065543;28;20020;-71
2023/04/05 06:47:36;;;;;;;22.85;9.73;;;5.10;1.00;;;;;;5056142;28;20028;-72
2023/04/05 06:50:03;;;;;;;24.38;9.88;;;5.20;1.00;;;;;;5051992;28;20391;-74
2023/04/05 06:52:29;;;;;;;37.63;13.40;;;5.30;1.00;;;;;;5053018;28;20039;-71
2023/04/05 06:54:55;;;;;;;28.58;11.43;;;5.30;1.00;;;;;;5053055;28;20108;-72
2023/04/05 06:57:21;;;;;;;46.80;16.60;;;5.50;1.00;;;;;;5053122;28;20032;-71
2023/04/05 06:59:46;;;;;;;43.78;17.38;;;5.70;1.00;;;;;;5057429;28;20061;-71
2023/04/05 07:02:12;;;;;;;52.53;19.65;;;5.90;1.00;;;;;;5073184;28;20057;-71
2023/04/05 07:04:38;;;;;;;44.22;17.02;;;6.00;1.00;;;;;;5072952;28;20021;-71
2023/04/05 07:07:05;;;;;;;30.33;10.13;;;6.20;1.00;;;;;;5071624;28;20462;-72
2023/04/05 07:09:34;;;;;;;26.38;10.48;;;6.20;1.00;;;;;;5071160;28;20039;-71
2023/04/05 07:12:03;;;;;;;37.20;12.23;;;6.30;1.00;;;;;;5072759;28;20112;-71
2023/04/05 07:14:30;;;;;;;34.53;13.00;;;6.00;1.00;;;;;;5073090;28;20525;-70
2023/04/05 07:16:55;;;;;;;37.90;13.18;;;6.00;1.00;;;;;;5077085;28;20047;-73
2023/04/05 07:19:21;;;;;;;35.53;11.55;;;6.00;1.00;;;;;;5077174;28;20438;-72
2023/04/05 07:21:48;;;;;;;30.30;13.95;;;6.00;1.00;;;;;;5077747;28;20028;-71
2023/04/05 07:24:13;;;;;;;35.53;14.55;;;6.10;1.00;;;;;;5076212;28;20493;-71
2023/04/05 07:26:39;;;;;;;37.95;14.63;;;6.20;1.00;;;;;;5071644;28;20036;-70
2023/04/05 07:29:06;;;;;;;20.65;8.68;;;6.30;1.00;;;;;;5072157;28;20029;-72
2023/04/05 07:31:31;;;;;;;19.90;8.02;;;6.50;99.90;;;;;;5074036;28;20388;-71
2023/04/05 07:33:59;;;;;;;19.98;8.57;;;6.60;29.80;;;;;;5077481;28;20028;-70
2023/04/05 07:36:26;;;;;;;18.15;8.25;;;6.70;1.00;;;;;;5078415;28;20470;-72
2023/04/05 07:38:54;;;;;;;16.38;7.78;;;6.90;1.00;;;;;;5078220;28;20021;-72
2023/04/05 07:41:20;;;;;;;22.05;8.25;;;7.10;1.00;;;;;;5076435;28;20039;-72
2023/04/05 07:43:45;;;;;;;24.83;8.35;;;7.30;99.90;;;;;;5074838;28;20092;-71
2023/04/05 07:46:11;;;;;;;16.85;7.35;;;7.50;24.00;;;;;;5072176;28;20474;-69
2023/04/05 07:48:37;;;;;;;19.98;9.02;;;7.70;1.00;;;;;;5072043;28;20048;-72
2023/04/05 07:51:05;;;;;;;18.35;7.88;;;7.80;1.00;;;;;;5071218;28;20048;-72
2023/04/05 07:53:30;;;;;;;15.65;7.63;;;7.90;21.70;;;;;;5071057;28;20024;-70
2023/04/05 07:55:56;;;;;;;19.17;7.63;;;8.00;1.00;;;;;;5071040;28;20028;-70
2023/04/05 07:58:22;;;;;;;17.60;7.43;;;8.00;99.90;;;;;;5071699;28;20032;-69
2023/04/05 08:00:48;;;;;;;25.00;8.60;;;8.10;15.20;;;;;;5071795;28;20394;-72
2023/04/05 08:03:13;;;;;;;15.55;6.22;;;8.30;1.00;;;;;;5071624;28;20032;-72
2023/04/05 08:05:39;;;;;;;16.33;7.57;;;8.00;77.00;;;;;;5071954;28;20537;-73
2023/04/05 08:08:09;;;;;;;14.88;7.15;;;8.20;96.70;;;;;;5071933;28;20080;-75
2023/04/05 08:10:39;;;;;;;19.10;7.65;;;8.20;1.00;;;;;;5071807;28;20375;-75
2023/04/05 08:13:05;;;;;;;21.13;6.95;;;8.10;16.60;;;;;;5071504;28;20500;-74
2023/04/05 08:15:32;;;;;;;15.63;6.68;;;8.10;1.00;;;;;;5072691;28;20036;-72
2023/04/05 08:17:58;;;;;;;14.32;7.07;;;8.00;1.00;;;;;;5072941;28;20036;-74
2023/04/05 08:20:24;;;;;;;13.05;6.60;;;8.00;1.00;;;;;;5071934;28;20032;-70
2023/04/05 08:22:50;;;;;;;13.43;6.78;;;8.00;1.00;;;;;;5071244;28;20060;-72
2023/04/05 08:25:15;;;;;;;13.32;6.32;;;8.10;1.00;;;;;;5071389;28;20356;-71
2023/04/05 08:27:41;;;;;;;16.00;7.20;;;8.20;99.90;;;;;;5071254;28;20032;-70
2023/04/05 08:30:07;;;;;;;13.52;6.43;;;8.30;99.90;;;;;;5071602;28;20446;-71
2023/04/05 08:32:33;;;;;;;19.13;7.53;;;8.40;99.90;;;;;;5071361;28;20035;-70
2023/04/05 08:34:59;;;;;;;17.92;8.40;;;8.40;99.90;;;;;;5072459;28;20158;-70
2023/04/05 08:37:26;;;;;;;18.73;8.48;;;8.40;1.00;;;;;;5072540;28;20063;-71
2023/04/05 08:39:52;;;;;;;19.67;7.45;;;8.40;1.00;;;;;;5079605;28;20472;-72
2023/04/05 08:42:28;;;;;;;13.93;7.22;;;8.50;1.00;;;;;;5076927;28;20039;-73
2023/04/05 08:44:56;;;;;;;13.57;6.30;;;8.60;1.00;;;;;;5075550;28;20046;-70
2023/04/05 08:47:22;;;;;;;19.83;7.50;;;8.60;57.00;;;;;;5075014;28;20024;-70
2023/04/05 08:49:48;;;;;;;13.88;6.85;;;8.70;54.70;;;;;;5074844;28;20044;-70
2023/04/05 08:52:14;;;;;;;20.65;7.10;;;8.80;1.00;;;;;;5074739;28;20016;-70
2023/04/05 08:54:40;;;;;;;14.65;7.20;;;9.00;1.00;;;;;;5074938;28;20118;-69
2023/04/05 08:57:06;;;;;;;17.00;7.28;;;9.10;99.90;;;;;;5074886;28;20036;-71
2023/04/05 08:59:36;;;;;;;14.75;6.70;;;9.50;99.90;;;;;;5075774;28;20438;-72
2023/04/05 09:02:10;;;;;;;12.82;5.90;;;9.90;1.00;;;;;;5075660;28;20021;-70
2023/04/05 09:04:43;;;;;;;14.25;5.40;;;10.70;99.90;;;;;;5075532;28;20050;-72
2023/04/05 09:07:10;;;;;;;18.05;5.85;;;11.50;1.00;;;;;;5075567;28;20028;-70
2023/04/05 09:09:38;;;;;;;13.98;5.28;;;12.80;99.90;;;;;;5076561;28;20486;-72
2023/04/05 09:12:05;;;;;;;11.88;5.88;;;14.50;1.00;;;;;;5075642;28;20490;-73
2023/04/05 09:14:33;;;;;;;15.55;5.90;;;14.50;4.60;;;;;;5075287;28;20025;-72
2023/04/05 09:17:02;;;;;;;18.58;5.68;;;;;;;;;;5074908;28;20497;-70
2023/04/05 09:19:27;;;;;;;10.43;5.75;;;16.60;1.00;;;;;;5074857;28;20036;-70
2023/04/05 09:22:06;;;;;;;20.35;6.22;;;17.30;1.00;;;;;;5074893;28;20021;-70
2023/04/05 09:24:39;;;;;;;13.50;5.18;;;18.30;1.00;;;;;;5077169;28;20031;-72
2023/04/05 09:27:12;;;;;;;12.55;5.28;;;19.00;1.00;;;;;;5058371;28;20319;-72
2023/04/05 09:29:40;;;;;;;11.90;5.03;;;19.70;1.00;;;;;;5056876;28;20104;-75
2023/04/05 09:32:07;;;;;;;8.48;4.93;;;19.90;1.00;;;;;;5073961;28;20105;-70
2023/04/05 09:34:37;;;;;;;10.35;4.97;;;20.40;1.00;;;;;;5074293;28;20020;-72
2023/04/05 09:37:15;;;;;;;13.93;5.72;;;20.50;1.00;;;;;;5074367;28;20024;-72
2023/04/05 09:39:41;;;;;;;8.52;5.25;;;20.80;99.90;;;;;;5074452;28;20102;-72
2023/04/05 09:42:12;;;;;;;16.98;6.25;;;21.00;99.90;;;;;;5073774;28;20032;-73
2023/04/05 09:44:53;;;;;;;12.00;5.10;;;20.70;99.90;;;;;;5074433;28;20484;-71
2023/04/05 09:47:29;;;;;;;12.85;6.18;;;20.50;99.90;;;;;;5074078;28;20025;-72
2023/04/05 09:49:56;;;;;;;15.35;5.68;;;19.70;99.90;;;;;;5073402;28;20394;-72
2023/04/05 09:52:32;;;;;;;11.63;5.85;;;19.30;99.90;;;;;;5073643;28;20100;-69
2023/04/05 09:55:03;;;;;;;12.13;5.63;;;18.80;99.90;;;;;;5074326;28;20025;-71
2023/04/05 09:57:33;;;;;;;11.52;5.75;;;17.90;99.90;;;;;;5074039;28;20111;-70
2023/04/05 09:59:59;;;;;;;16.77;6.13;;;17.20;99.90;;;;;;5073875;28;20063;-71
2023/04/05 10:02:33;;;;;;;16.27;6.38;;;16.60;99.90;;;;;;5073564;28;20439;-70
2023/04/05 10:05:12;;;;;;;13.85;5.80;;;15.80;1.00;;;;;;5073863;28;20017;-70
2023/04/05 10:07:47;;;;;;;13.35;6.43;;;15.20;1.00;;;;;;5073504;28;20021;-72
2023/04/05 10:10:14;;;;;;;10.60;5.53;;;15.00;1.00;;;;;;5073695;28;20025;-72
2023/04/05 10:12:41;;;;;;;12.52;5.93;;;14.80;1.00;;;;;;5073436;28;20051;-70
2023/04/05 10:15:10;;;;;;;15.18;6.05;;;14.70;1.00;;;;;;5073816;28;20028;-69
2023/04/05 10:17:48;;;;;;;15.80;6.45;;;14.60;1.00;;;;;;5073578;28;20028;-68
2023/04/05 10:20:23;;;;;;;15.65;6.35;;;14.60;1.00;;;;;;5073758;28;20024;-70
2023/04/05 10:23:09;;;;;;;13.88;6.38;;;14.20;1.00;;;;;;5067529;28;20016;-70
2023/04/05 10:25:53;;;;;;;24.63;6.93;;;13.90;1.00;;;;;;5060909;28;20059;-68
2023/04/05 10:28:41;;;;;;;13.65;5.57;;;13.70;1.00;;;;;;5062175;28;20021;-70
2023/04/05 10:31:11;;;;;;;11.20;5.80;;;13.70;1.00;;;;;;5069601;28;20017;-71
2023/04/05 10:33:46;;;;;;;13.55;5.78;;;13.90;1.00;;;;;;5061641;28;20087;-70
2023/04/05 10:36:11;;;;;;;;;;;14.00;1.00;;;;;;5063125;28;20020;-70
2023/04/05 10:39:02;;;;;;;16.08;5.28;;;14.00;1.00;;;;;;5063177;28;19905;-70
2023/04/05 10:41:49;;;;;;;20.15;6.43;;;14.00;1.00;;;;;;5062800;28;20025;-70
2023/04/05 10:44:15;;;;;;;11.38;5.85;;;13.90;1.00;;;;;;5063529;28;20040;-70
2023/04/05 10:46:43;;;;;;;12.15;6.20;;;13.90;1.00;;;;;;5062945;28;20017;-69
2023/04/05 10:49:31;;;;;;;12.43;5.57;;;13.90;1.00;;;;;;5065011;28;20016;-71
2023/04/05 10:51:57;;;;;;;12.02;5.32;;;13.70;1.00;;;;;;5064698;28;20032;-69
2023/04/05 10:54:24;;;;;;;10.70;4.50;;;13.60;1.00;;;;;;5065146;28;20024;-71
2023/04/05 10:56:50;;;;;;;8.95;4.47;;;13.70;1.00;;;;;;5066237;28;20070;-69
2023/04/05 10:59:16;;;;;;;10.57;4.90;;;13.70;1.00;;;;;;5067419;28;20060;-69
2023/04/05 11:01:44;;;;;;;10.23;4.50;;;13.70;1.00;;;;;;5061253;28;20058;-69
2023/04/05 11:04:11;;;;;;;10.10;4.07;;;13.80;1.00;;;;;;5064006;28;20035;-70
2023/04/05 11:06:37;;;;;;;11.32;5.28;;;13.90;1.00;;;;;;5065117;28;20024;-70
2023/04/05 11:09:20;;;;;;;9.43;4.38;;;13.90;1.00;;;;;;5063431;28;20358;-71
2023/04/05 11:11:50;;;;;;;11.27;4.63;;;14.00;1.00;;;;;;5060429;28;20028;-71
2023/04/05 11:14:36;;;;;;;20.65;9.82;;;14.40;1.00;;;;;;5067638;28;20033;-70
2023/04/05 11:17:02;;;;;;;9.20;4.63;;;15.30;1.00;;;;;;5072501;28;20032;-69
2023/04/05 11:19:46;;;;;;;10.35;4.30;;;16.70;1.00;;;;;;5072776;28;20099;-70
2023/04/05 11:22:13;;;;;;;10.65;4.10;;;18.20;1.00;;;;;;5072221;28;20036;-70
2023/04/05 11:25:01;;;;;;;7.55;4.15;;;19.20;1.00;;;;;;5072351;28;20056;-70
2023/04/05 11:27:39;;;;;;;11.38;4.20;;;20.00;1.00;;;;;;5066802;28;20013;-70
2023/04/05 11:30:06;;;;;;;10.32;4.68;;;20.10;99.90;;;;;;5051525;28;20040;-70
2023/04/05 11:32:42;;;;;;;9.90;4.47;;;19.80;99.90;;;;;;5051594;28;20028;-70
2023/04/05 11:35:22;;;;;;;10.68;4.65;;;19.00;99.90;;;;;;5051620;28;20028;-70
2023/04/05 11:37:59;;;;;;;11.27;4.63;;;18.40;99.90;;;;;;5052218;28;20059;-70
2023/04/05 11:40:31;;;;;;;14.07;4.38;;;17.50;99.90;;;;;;5050015;28;20472;-69
2023/04/05 11:43:02;;;;;;;10.35;5.00;;;17.00;99.90;;;;;;5068761;28;20063;-70
2023/04/05 11:45:30;;;;;;;7.07;3.97;;;16.50;99.90;;;;;;5065025;28;20028;-69
2023/04/05 11:47:56;;;;;;;10.80;5.20;;;16.20;99.90;;;;;;5051940;28;20021;-70
2023/04/05 11:50:23;;;;;;;14.45;4.88;;;16.00;99.90;;;;;;5051674;28;20045;-72
2023/04/05 11:53:06;;;;;;;12.18;4.93;;;15.60;1.00;;;;;;5051404;28;20056;-70
2023/04/05 11:55:32;;;;;;;9.80;4.63;;;15.30;1.00;;;;;;5058671;28;20031;-69
2023/04/05 11:57:57;;;;;;;14.23;5.20;;;15.00;1.00;;;;;;5071767;28;20032;-70
2023/04/05 12:00:23;;;;;;;13.43;5.40;;;14.80;1.00;;;;;;5071857;28;20108;-69
2023/04/05 12:02:48;;;;;;;14.75;5.45;;;14.50;1.00;;;;;;5071764;28;20490;-71
2023/04/05 12:05:14;;;;;;;15.70;6.32;;;14.10;1.00;;;;;;5071569;28;20489;-70
2023/04/05 12:07:40;;;;;;;14.00;5.55;;;14.00;1.00;;;;;;5071672;28;20116;-73
2023/04/05 12:10:12;;;;;;;11.60;5.55;;;13.80;1.00;;;;;;5071819;28;20021;-74
2023/04/05 12:12:43;;;;;;;10.75;5.85;;;13.70;1.00;;;;;;5071461;28;20032;-70
2023/04/05 12:15:13;;;;;;;9.27;4.65;;;14.30;1.00;;;;;;5071645;28;20074;-70
2023/04/05 12:17:49;;;;;;;12.95;5.07;;;14.80;1.00;;;;;;5071704;28;20047;-71
2023/04/05 12:20:21;;;;;;;8.43;4.45;;;15.30;1.00;;;;;;5071519;28;20032;-69
2023/04/05 12:22:48;;;;;;;11.27;4.45;;;15.60;1.00;;;;;;5071035;28;20126;-71
2023/04/05 12:25:15;;;;;;;10.25;4.45;;;16.10;1.00;;;;;;5071277;28;20040;-71
2023/04/05 12:27:41;;;;;;;10.73;4.25;;;16.60;1.00;;;;;;5065499;28;20354;-70
2023/04/05 12:30:18;;;;;;;11.73;4.50;;;17.00;1.00;;;;;;5051915;28;20105;-72
2023/04/05 12:32:51;;;;;;;10.38;4.50;;;17.70;1.00;;;;;;5050800;28;20033;-69
2023/04/05 12:35:19;;;;;;;10.27;3.45;;;18.20;1.00;;;;;;5051244;28;20509;-72
2023/04/05 12:37:46;;;;;;;8.18;4.00;;;18.40;1.00;;;;;;5051622;28;20036;-71
2023/04/05 12:40:12;;;;;;;13.95;4.78;;;19.00;99.90;;;;;;5051845;28;20036;-70
2023/04/05 12:42:39;;;;;;;7.28;3.88;;;19.20;99.90;;;;;;5052698;28;20053;-71
2023/04/05 12:45:10;;;;;;;23.42;9.77;;;19.50;99.90;;;;;;5051349;28;20059;-70
2023/04/05 12:47:46;;;;;;;15.82;6.60;;;21.50;99.90;;;;;;5053151;28;20117;-72
2023/04/05 12:50:14;;;;;;;10.15;4.25;;;22.00;99.90;;;;;;5053954;28;20055;-71
2023/04/05 12:52:51;;;;;;;12.10;4.53;;;23.70;99.90;;;;;;5053206;28;20032;-73
2023/04/05 12:55:17;;;;;;;6.15;2.92;;;25.80;99.90;;;;;;5043731;28;20032;-74
2023/04/05 12:57:42;;;;;;;9.20;4.10;;;25.60;99.90;;;;;;5065062;28;20037;-74